Antananarivo, Madagascar
Current Conditions -  °F | °C
As of 1:30 PM on Saturday 25 Oct 2014 (Local Time) from FMMI Reporting Station
Broken Clouds Broken Clouds  
Wind Chill: 84°   Ceiling: 2000
Heat Index: 84°   Visibility: 6mi
Dew Point: 54°   Wind: 10mph
Humidity: 35%   Direction: 310°NW
Pressure: 30.06"   Gusts: 23mph
Location:  18.89°S, 47.51°E
Report Text: FMMI 251030Z 310009G20KT 280V360 9999 BKN020 29/12 Q1018 NOSIG
Loading
Personal Weather Stations






























Interactive Weather Map
Tropical Storm Tracking
New forecast layout! Learn more

10-Day Weather Forecast

Advertisements
Track Severe Weather on mobile